• Join FlightAware (Why Join?)
  • Login
  • US Flag 
03:09PM EDT


 

Airport Tracker/Info


-or-


 

Live Flight TrackerFlight Track Log ✈ AWE1940 ✈ 15-Jun-2013 ✈ KIAH - KCLT

Flight Track Log - Related Links

Times and Time Zones

All times are in EDT time to prevent confusion due to time zone crossing. See the AWE1940 flight status page for this flight to view local times or setup timezone preferences in your user account.

Time Position Orientation Groundspeed Altitude Reporting Facility
EDT Latitude Longitude Course Direction KTS MPH feet Rate Location/Type
06:38PM 29.9547 -95.3372 90° East 203 234 1,000  Level Houston Center
06:39PM 29.9031 -95.2758 134° Southeast 237 273 3,600 1,920 Climbing Houston Center
06:40PM 29.8783 -95.2422 130° Southeast 230 265 5,000 2,280 Climbing Houston Center
06:40PM 29.8686 -95.1981 104° East 279 321 6,200 3,300 Climbing Houston Center
06:41PM 29.9834 -94.8148 90° East  Level FlightAware Approximate
06:41PM 29.8653 -95.1353 93° East 280 322 8,400  Level Houston Center
06:42PM 29.9833 -94.6852 90° East  Level FlightAware Approximate
06:42PM 29.8611 -95.0425 93° East 286 329 10,800  Level Houston Center
06:43PM 29.9833 -94.5556 90° East  Level FlightAware Approximate
06:43PM 29.8614 -94.9392 90° East 311 358 12,600  Level Houston Center
06:44PM 29.8583 -94.8206 92° East 353 406 13,700 1,320 Climbing Houston Center
06:45PM 29.8569 -94.6869 91° East 407 468 15,300 1,560 Climbing Houston Center
06:46PM 29.8708 -94.5522 83° East 423 487 17,000 1,320 Climbing Houston Center
06:47PM 29.8928 -94.4142 80° East 431 496 18,100 1,080 Climbing Houston Center
06:48PM 29.9231 -94.2742 76° East 441 507 19,200 900 Climbing Houston Center
06:49PM 29.9556 -94.1314 75° East 452 520 20,000 780 Climbing Houston Center
06:50PM 29.9878 -93.9872 75° East 460 529 20,900 1,260 Climbing Houston Center
06:51PM 30.0214 -93.8092 78° East 466 536 22,600 2,280 Climbing Houston Center
06:52PM 30.0442 -93.6775 79° East 440 506 25,600 1,800 Climbing Houston Center
06:53PM 30.0683 -93.5450 78° East 426 490 26,300 840 Climbing Houston Center
06:54PM 30.0933 -93.4047 78° East 449 517 27,400 960 Climbing Houston Center
06:55PM 30.1239 -93.2650 76° East 456 525 28,300 900 Climbing Houston Center
06:56PM 30.1839 -93.1347 62° Northeast 469 540 29,300 1,080 Climbing Houston Center
06:57PM 30.2664 -92.9864 57° Northeast 461 531 30,600 1,080 Climbing Houston Center
06:58PM 30.3311 -92.8592 59° Northeast 463 533 31,500 1,080 Climbing Houston Center
06:59PM 30.4003 -92.7339 57° Northeast 463 533 32,900 720 Climbing Houston Center
07:00PM 30.4636 -92.6089 60° Northeast 453 521 33,000  Climbing Houston Center
07:01PM 30.5264 -92.4903 58° Northeast 451 519 33,000  Level Houston Center
07:02PM 30.6042 -92.3419 59° Northeast 452 520 33,000  Level Houston Center
07:03PM 30.6692 -92.2175 59° Northeast 453 521 33,000  Level Houston Center
07:04PM 30.7350 -92.0931 58° Northeast 452 520 33,000  Level Houston Center
07:05PM 30.7989 -91.9689 59° Northeast 453 521 33,000  Level Houston Center
07:06PM 30.8642 -91.8442 59° Northeast 452 520 33,000  Level Houston Center
07:07PM 30.9292 -91.7206 58° Northeast 451 519 33,000  Level Houston Center
07:08PM 30.9936 -91.5958 59° Northeast 451 519 33,000  Level Houston Center
07:09PM 31.0717 -91.4461 59° Northeast 452 520 33,000  Level Houston Center
07:10PM 31.1308 -91.3308 59° Northeast 450 518 33,000  Level Houston Center
07:12PM 31.1931 -91.2056 60° Northeast 449 517 33,000  Level Houston Center
07:13PM 31.2569 -91.0811 59° Northeast 447 514 33,000  Level Houston Center
07:14PM 31.3203 -90.9567 59° Northeast 445 512 33,000  Level Houston Center
07:15PM 31.3831 -90.8319 59° Northeast 445 512 33,000  Level Houston Center
07:16PM 31.4583 -90.6814 60° Northeast 444 511 33,000  Level Houston Center
07:17PM 31.5214 -90.5567 59° Northeast 445 512 33,000 -60 Level Houston Center
07:18PM 31.5831 -90.4322 60° Northeast 441 507 32,900  Descending Houston Center
07:19PM 31.6447 -90.3072 60° Northeast 442 509 33,000  Climbing Houston Center
07:20PM 31.7078 -90.1825 59° Northeast 443 510 33,000  Level Houston Center
07:21PM 31.7703 -90.0567 60° Northeast 444 511 33,000  Level Houston Center
07:22PM 31.8333 -89.9300 60° Northeast 449 517 33,000  Level Houston Center
07:23PM 31.9042 -89.7850 60° Northeast 450 518 33,000  Level Houston Center
07:23PM 31.9231 -89.7456 61° Northeast 443 510 33,000  Level Memphis Center
07:24PM 31.9869 -89.6178 59° Northeast 443 510 33,000  Level Memphis Center
07:25PM 32.0467 -89.4922 61° Northeast 443 510 33,000  Level Memphis Center
07:26PM 32.1106 -89.3617 60° Northeast 443 510 33,000  Level Memphis Center
07:27PM 32.1719 -89.2333 61° Northeast 443 510 33,000  Level Memphis Center
07:28PM 32.2356 -89.1072 59° Northeast 443 510 33,000  Level Memphis Center
07:29PM 32.2947 -88.9786 61° Northeast 443 510 33,000  Level Memphis Center
07:30PM 32.3519 -88.8647 59° Northeast 438 504 33,000  Level Memphis Center
07:31PM 32.4108 -88.7381 61° Northeast 443 510 33,000  Level Memphis Center
07:32PM 32.4717 -88.6089 61° Northeast 438 504 33,000  Level Memphis Center
07:33PM 32.5283 -88.4847 62° Northeast 438 504 33,000  Level Memphis Center
07:34PM 32.5869 -88.3603 61° Northeast 438 504 33,000  Level Memphis Center
07:36PM 32.7222 -88.0731 61° Northeast 442 509 33,000  Level Atlanta Center
07:37PM 32.7761 -87.9519 62° Northeast 447 514 33,000  Level Atlanta Center
07:38PM 32.8344 -87.8211 62° Northeast 447 514 33,000  Level Atlanta Center
07:39PM 32.8761 -87.6844 70° East 442 509 33,000  Level Atlanta Center
07:40PM 32.9139 -87.5400 73° East 442 509 33,000  Level Atlanta Center
07:41PM 32.9489 -87.4003 73° East 442 509 33,000  Level Atlanta Center
07:42PM 32.9864 -87.2533 73° East 442 509 33,000  Level Atlanta Center
07:43PM 33.0172 -87.1033 76° East 442 509 33,000  Level Atlanta Center
07:44PM 33.0542 -86.9558 73° East 442 509 33,000  Level Atlanta Center
07:45PM 33.0889 -86.8133 74° East 448 516 33,000  Level Atlanta Center
07:46PM 33.1233 -86.6681 74° East 448 516 33,000  Level Atlanta Center
07:47PM 33.1578 -86.5203 74° East 457 526 33,000  Level Atlanta Center
07:48PM 33.1917 -86.3797 74° East 442 509 33,000  Level Atlanta Center
07:49PM 33.2258 -86.2314 75° East 447 514 33,000  Level Atlanta Center
07:50PM 33.2597 -86.0833 75° East 447 514 33,000  Level Atlanta Center
07:51PM 33.2933 -85.9400 74° East 453 521 33,000  Level Atlanta Center
07:52PM 33.3267 -85.7964 74° East 448 516 33,000  Level Atlanta Center
07:53PM 33.3578 -85.6703 74° East 438 504 33,000  Level Atlanta Center
07:54PM 33.3908 -85.5267 75° East 446 513 33,000  Level Atlanta Center
07:55PM 33.4217 -85.3778 76° East 452 520 33,000  Level Atlanta Center
07:56PM 33.4567 -85.2189 75° East 447 514 33,000  Level Atlanta Center
07:57PM 33.4894 -85.0700 75° East 453 521 33,000  Level Atlanta Center
07:58PM 33.5219 -84.9258 75° East 453 521 33,000  Level Atlanta Center
07:59PM 33.5542 -84.7767 75° East 453 521 33,000  Level Atlanta Center
08:00PM 33.5842 -84.6297 76° East 453 521 33,000  Level Atlanta Center
08:01PM 33.6139 -84.4828 76° East 453 521 33,000  Level Atlanta Center
08:02PM 33.6519 -84.3408 72° East 448 516 33,000  Level Atlanta Center
08:03PM 33.6961 -84.1911 70° East 456 525 33,000  Level Atlanta Center
08:04PM 33.7378 -84.0439 71° East 464 534 33,000  Level Atlanta Center
08:05PM 33.7775 -83.8964 72° East 459 528 33,000  Level Atlanta Center
08:06PM 33.8189 -83.7511 71° East 459 528 33,000  Level Atlanta Center
08:07PM 33.8603 -83.6011 72° East 464 534 33,000  Level Atlanta Center
08:08PM 33.8994 -83.4556 72° East 459 528 33,000 -240 Level Atlanta Center
08:09PM 33.9403 -83.3078 72° East 459 528 32,600 -720 Descending Atlanta Center
08:10PM 33.9811 -83.1619 71° East 459 528 31,600 -1,020 Descending Atlanta Center
08:11PM 34.0175 -83.0164 73° East 459 528 30,600 -960 Descending Atlanta Center
08:12PM 34.0600 -82.8678 71° East 459 528 29,700 -900 Descending Atlanta Center
08:13PM 34.0961 -82.7344 72° East 464 534 28,900 -960 Descending Atlanta Center
08:14PM 34.1422 -82.5706 71° East 464 534 27,800 -1,080 Descending Atlanta Center
08:15PM 34.2033 -82.4314 62° Northeast 464 534 26,800 -1,020 Descending Atlanta Center
08:16PM 34.2786 -82.3042 54° Northeast 458 527 25,800 -1,020 Descending Atlanta Center
08:17PM 34.3542 -82.1819 53° Northeast 458 527 24,800 -1,500 Descending Atlanta Center
08:18PM 34.4253 -82.0594 55° Northeast 451 519 22,900 -2,220 Descending Atlanta Center
08:19PM 34.4983 -81.9417 53° Northeast 445 512 20,400 -2,400 Descending Atlanta Center
08:20PM 34.5553 -81.8469 54° Northeast 421 484 18,500 -2,280 Descending Atlanta Center
08:21PM 34.6281 -81.7214 55° Northeast 410 472 15,900 -2,220 Descending Atlanta Center
08:22PM 34.6847 -81.6264 54° Northeast 394 453 13,800 -1,920 Descending Atlanta Center
08:23PM 34.7472 -81.5261 53° Northeast 384 442 12,100 -900 Descending Atlanta Center
08:24PM 34.8164 -81.4381 46° Northeast 365 420 12,000 -240 Descending Atlanta Center
08:24PM 34.8408 -81.4067 46° Northeast 371 427 11,800 -600 Descending Atlanta Center
08:25PM 34.8875 -81.3444 48° Northeast 365 420 11,400 -720 Descending Atlanta Center
08:25PM 34.9158 -81.3056 48° Northeast 376 433 11,100 -900 Descending Atlanta Center
08:26PM 34.9586 -81.2536 45° Northeast 365 420 10,500 -1,020 Descending Atlanta Center
08:27PM 34.9869 -81.2169 47° Northeast 365 420 10,100 -420 Descending Atlanta Center
08:27PM 35.0275 -81.1650 46° Northeast 357 411 10,100  Level Atlanta Center
08:28PM 35.0536 -81.1311 47° Northeast 354 407 10,100 -120 Level Atlanta Center
08:28PM 35.0983 -81.0761 45° Northeast 357 411 10,000 -180 Descending Atlanta Center
08:29PM 35.1397 -81.0619 16° North 338 389 9,900 -840 Descending Atlanta Center
08:29PM 35.1897 -81.0653 357° North 306 352 9,200 -1,440 Descending Atlanta Center
08:30PM 35.2172 -81.0719 349° North 281 323 8,600 -1,920 Descending Atlanta Center
08:31PM 35.3050 -81.0789 356° North 270 311 6,500 -1,620 Descending Atlanta Center
08:32PM 35.3714 -81.0714 North 245 282 5,200 -1,200 Descending Atlanta Center
08:33PM 35.3761 -81.0050 85° East 190 219 4,100 -1,080 Descending Atlanta Center
08:34PM 35.3339 -80.9811 155° Southeast 166 191 3,200 -1,020 Descending Atlanta Center